This is the latest recevied weather packets stored in our database for station/object WD4HMR. If no packets are shown the sender has not sent any weather packets the latest 10 day(s).
| Time | Temp. | Humidity | Pressure | Rain* | Wind** | Luminosity | Snow |
|---|---|---|---|---|---|---|---|
| 1777604704 | 14.44° C | 75% | 1015.6 hPa | 0 mm | - | 0 W/m² | - |
| 1777604104 | 15° C | 72% | 1015.6 hPa | 0 mm | - | 0 W/m² | - |
| 1777603503 | 15° C | 70% | 1015.4 hPa | 0 mm | - | 0 W/m² | - |
| 1777603209 | 15° C | 70% | 1015.4 hPa | 0 mm | - | 0 W/m² | - |
| 1777602309 | 15° C | 69% | 1015.4 hPa | 0 mm | - | 0 W/m² | - |
| 1777602003 | 15° C | 69% | 1015.3 hPa | 0 mm | - | 0 W/m² | - |
| 1777600503 | 15° C | 65% | 1015 hPa | 0 mm | - | 0 W/m² | - |
| 1777599904 | 15° C | 65% | 1014.9 hPa | 0 mm | - | 0 W/m² | - |
| 1777598403 | 15.56° C | 68% | 1015 hPa | 0 mm | - | 0 W/m² | - |
| 1777597804 | 15.56° C | 70% | 1015 hPa | 0 mm | - | 0 W/m² | - |
| 1777597204 | 15.56° C | 70% | 1014.9 hPa | 0 mm | - | 0 W/m² | - |
| 1777596903 | 16.11° C | 71% | 1015 hPa | 0 mm | - | 0 W/m² | - |
| 1777593903 | 16.67° C | 68% | 1014.6 hPa | 0 mm | - | 96 W/m² | - |
| 1777592404 | 17.22° C | 64% | 1014.5 hPa | 0 mm | - | 263 W/m² | - |
| 1777592104 | 17.22° C | 63% | 1014.6 hPa | 0 mm | - | 304 W/m² | - |
| 1777591804 | 17.22° C | 63% | 1014.7 hPa | 0 mm | - | 324 W/m² | - |
| 1777591504 | 17.22° C | 62% | 1014.6 hPa | 0 mm | - | 379 W/m² | - |
| 1777590304 | 17.78° C | 60% | 1014.3 hPa | 0 mm | - | 496 W/m² | - |
| 1777588204 | 18.33° C | 60% | 1014.5 hPa | 0 mm | - | 647 W/m² | - |
| 1777587904 | 18.33° C | 60% | 1014.5 hPa | 0 mm | - | 668 W/m² | - |
| 1777587604 | 18.33° C | 60% | 1014.5 hPa | 0 mm | - | 690 W/m² | - |
| 1777587004 | 18.33° C | 62% | 1014.4 hPa | 0 mm | - | 733 W/m² | - |
| 1777582503 | 20° C | 59% | 1014.5 hPa | 0 mm | - | 1027 W/m² | - |
| 1777581004 | 20.56° C | 58% | 1014.2 hPa | 0 mm | - | 1106 W/m² | - |
| 1777580704 | 20.56° C | 59% | 1014.3 hPa | 0 mm | - | 1120 W/m² | - |
* Rain latest hour (hover to see other rain measurements)
** Current wind speed in m/s (hover to see current wind gust speed)